WetterOnline ( https://www.wetteronline.de )

Wetter aktuell Bad Doberan

Aktuelles Wetter: Rostock-Warnemünde (10m)

6-stündlich | Neueste Meldungen
Ortszeit Temperatur Wetter
Di, 06.12. 7:00 4.9° C bedeckt
Di, 06.12. 1:00 1.1° C Sprühregen
Mo, 05.12. 19:00 1.8° C leichter Regen
Mo, 05.12. 13:00 2.1° C leichter Regen
Mo, 05.12. 7:00 3.5° C bedeckt
Mo, 05.12. 1:00 4.6° C bedeckt
So, 04.12. 19:00 4.3° C bedeckt
So, 04.12. 13:00 4.3° C bedeckt
Ortszeit Temperatur Wetter
Di, 06.12. 10:30 4.8° C bedeckt
Di, 06.12. 10:20 4.8° C bedeckt
Di, 06.12. 10:10 4.7° C bewölkt
Di, 06.12. 10:00 4.6° C bewölkt
Di, 06.12. 9:50 4.6° C bewölkt
Di, 06.12. 9:40 4.6° C bedeckt
Di, 06.12. 9:30 4.6° C bewölkt
Di, 06.12. 9:00 4.7° C bewölkt
Di, 06.12. 8:30 4.5° C bedeckt
Di, 06.12. 8:00 4.7° C bedeckt
Di, 06.12. 7:30 4.8° C bedeckt
Ortszeit Relative Feuchte Sichtweite
Di, 06.12. 7:00 91% 50 km
Di, 06.12. 1:00 96% 12 km
Mo, 05.12. 19:00 94% 12 km
Mo, 05.12. 13:00 94% 6 km
Mo, 05.12. 7:00 91% 8 km
Mo, 05.12. 1:00 92% 7 km
So, 04.12. 19:00 93% 10 km
So, 04.12. 13:00 83% 16 km
Ortszeit Relative Feuchte Sichtweite
Di, 06.12. 10:30 91% 35 km
Di, 06.12. 10:20 91% -
Di, 06.12. 10:10 90% -
Di, 06.12. 10:00 90% 35 km
Di, 06.12. 9:50 90% -
Di, 06.12. 9:40 91% -
Di, 06.12. 9:30 92% 29 km
Di, 06.12. 9:00 93% 27 km
Di, 06.12. 8:30 93% 30 km
Di, 06.12. 8:00 92% 30 km
Di, 06.12. 7:30 91% 40 km
Ortszeit Niederschlagsmenge Niederschlagsart
Di, 06.12. 7:00 2 l/m2 in 12 Std. Regen
Di, 06.12. 1:00 2 l/m2 in 6 Std. Schnee, Regen
Mo, 05.12. 19:00 3 l/m2 in 12 Std. Regen
Mo, 05.12. 13:00 0.2 l/m2 in 6 Std. Regen
Mo, 05.12. 7:00 0.1 l/m2 in 12 Std. Regen
Mo, 05.12. 1:00 0.1 l/m2 in 6 Std. Sprühregen
So, 04.12. 19:00 0.0 l/m2 in 12 Std. -
So, 04.12. 13:00 0.0 l/m2 in 6 Std. -
Ortszeit Niederschlagsmenge Niederschlagsart
Di, 06.12. 10:30 0.0 l/m2 in 30 Min -
Di, 06.12. 10:20 keine Meldung -
Di, 06.12. 10:10 keine Meldung -
Di, 06.12. 10:00 0.0 l/m2 in 1 Std. -
Di, 06.12. 9:50 keine Meldung -
Di, 06.12. 9:40 keine Meldung -
Di, 06.12. 9:30 0.0 l/m2 in 30 Min -
Di, 06.12. 9:00 0.0 l/m2 in 1 Std. -
Di, 06.12. 8:30 0.0 l/m2 in 30 Min -
Di, 06.12. 8:00 0.0 l/m2 in 1 Std. -
Di, 06.12. 7:30 0.0 l/m2 in 30 Min -
Ortszeit Stärke Spitze Richtung
km/h Bft. km/h Grad Sektor
Di, 06.12. 7:00 25 4 29 340° N
Di, 06.12. 1:00 9 2 11 210° SW
Mo, 05.12. 19:00 4 1 14 120° SO
Mo, 05.12. 13:00 7 2 22 110° O
Mo, 05.12. 7:00 9 2 30 100° O
Mo, 05.12. 1:00 13 3 28 60° NO
So, 04.12. 19:00 11 2 36 80° O
So, 04.12. 13:00 13 3 28 60° NO
Ortszeit Stärke Spitze Richtung
km/h Bft. km/h Grad Sektor
Di, 06.12. 10:30 25 4 29 340° N
Di, 06.12. 10:20 25 4 - 340° N
Di, 06.12. 10:10 24 4 - 340° N
Di, 06.12. 10:00 22 4 28 340° N
Di, 06.12. 9:50 22 4 - 340° N
Di, 06.12. 9:40 22 4 - 340° N
Di, 06.12. 9:30 22 4 28 340° N
Di, 06.12. 9:00 22 4 32 350° N
Di, 06.12. 8:30 25 4 32 340° N
Di, 06.12. 8:00 28 4 31 340° N
Di, 06.12. 7:30 28 4 31 340° N
Ortszeit Untergrenze Bedeckung Gattung
total tief tief mittel hoch
Di, 06.12. 7:00 270 m 8/8 8/8 - - -
Di, 06.12. 1:00 210 m 8/8 8/8 - - -
Mo, 05.12. 19:00 150 m 8/8 8/8 - - -
Mo, 05.12. 13:00 90 m 8/8 8/8 - - -
Mo, 05.12. 7:00 180 m 8/8 8/8 - - -
Mo, 05.12. 1:00 150 m 8/8 8/8 - - -
So, 04.12. 19:00 150 m 8/8 8/8 - - -
So, 04.12. 13:00 570 m 8/8 8/8 - - -
Ortszeit Bedeckungsgrad in Achtel und Wolkenuntergrenze
Di, 06.12. 10:30 6(270m) 8(480m)
Di, 06.12. 10:20 6(270m) 8(480m)
Di, 06.12. 10:10 7
Di, 06.12. 10:00 7(240m)
Di, 06.12. 9:50 7(240m)
Di, 06.12. 9:40 8
Di, 06.12. 9:30 7(210m)
Di, 06.12. 9:00 7(210m)
Di, 06.12. 8:30 7(240m) 8(330m)
Di, 06.12. 8:00 8(240m)
Di, 06.12. 7:30 8(240m)
Ortszeit Luftdruck NN (hPa) Tendenz (hPa in 3 Std.)
Di, 06.12. 7:00 1015 - 1,0
Di, 06.12. 1:00 1017 - 1,1
Mo, 05.12. 19:00 1019 - 0,3
Mo, 05.12. 13:00 1019 - 0,9
Mo, 05.12. 7:00 1020 - 0,2
Mo, 05.12. 1:00 1021 - 1,1
So, 04.12. 19:00 1022 - 0,2
So, 04.12. 13:00 1023 - 0,9
Ortszeit Luftdruck NN (hPa) Tendenz (hPa in 3 Std.)
Di, 06.12. 10:30 1015 + 0,3
Di, 06.12. 10:20 1015 keine Meldung
Di, 06.12. 10:10 1015 keine Meldung
Di, 06.12. 10:00 1015 + 0,2
Di, 06.12. 9:50 1015 keine Meldung
Di, 06.12. 9:40 1015 keine Meldung
Di, 06.12. 9:30 1015 + 0,1
Di, 06.12. 9:00 1015 - 0,2
Di, 06.12. 8:30 1015 - 0,3
Di, 06.12. 8:00 1015 - 0,6
Di, 06.12. 7:30 1015 - 0,8
Ortszeit Schneehöhe (cm)
Di, 06.12. 7:00 0
Di, 06.12. 1:00 0
Mo, 05.12. 19:00 0
Mo, 05.12. 13:00 0
Mo, 05.12. 7:00 0
Mo, 05.12. 1:00 0
So, 04.12. 19:00 0
So, 04.12. 13:00 0
Ortszeit Schneehöhe (cm)
Di, 06.12. 10:30 0
Di, 06.12. 10:20 0
Di, 06.12. 10:10 0
Di, 06.12. 10:00 0
Di, 06.12. 9:50 0
Di, 06.12. 9:40 0
Di, 06.12. 9:30 0
Di, 06.12. 9:00 0
Di, 06.12. 8:30 0
Di, 06.12. 8:00 0
Di, 06.12. 7:30 0
Link zu dieser Seite / Seite empfehlen

Das Wetter in ...